In Rescue
 
Open Full Screen Window  High Contrast Mode
Wind Gusting 00 knots
11
November 29, 2022 8:46 AM CST
Weather Information
Wind Direction
  340 °
Wind Speed
  11 kt (13 mph)
Wind Gust
  00 kt (0 mph)
Altimeter
29.76 in
Visibility
10 SM
Temperature
-06° C
21° F
Dewpoint
-10° C
14° F
Humidity
74%
1hr Rain Fall
00.00 in.
24hr Rain Fall
00.00 in.
Sky Condition
Broken @ 8,000 ft
VFR

METAR KMVE 291446Z AUTO 34011KT 10SM BKN080 M06/M10 A2976 RMK AO2

FAA Disclaimer: The data displayed is for advisory purposes only and is not to be used for flight planning or operations.